Sea Voyager — V7QU2 — position and weather

sailwx.info

Track history (hours):
 
Tides and Currents Weather Stations Pressure Air Temp Water Temp Dewpoint Dewpoint Depression Visibility Wind Speed Wind Dir Waves Ship Positions

Sea Voyager

Last reported at 2015-Aug-20 00:26 UTC. Time now 2015-Aug-28 19:15 UTC.
Position N 35°03' E 119°51'.
Warning: this ship's position is 8 days out of date.

Length 243 m; draft 8.7 m.

Type: Ship. MMSI: 538003439.

Date/timePositionNaut miles runAvg speedWind from/ knotsBaromVisibWave heightAir tempDewpointWater temp
2015-Aug-20 00:26N 35°03' E 119°51'1112.2
2015-Aug-19 23:32N 35°04' E 119°38'11 9.3
2015-Aug-19 22:23N 35°03' E 119°25'3 0.3
2015-Aug-19 13:18N 35°06' E 119°24'0 0.0
2015-Aug-19 10:18N 35°06' E 119°24'0 0.0
2015-Aug-18 03:18N 35°06' E 119°24'0 0.0
2015-Aug-18 00:32N 35°06' E 119°24'3 2.5
2015-Aug-17 23:23N 35°03' E 119°25'6 7.1
2015-Aug-17 22:33N 35°02' E 119°32'6 5.4
2015-Aug-17 21:26N 35°04' E 119°39'4 0.1
2015-Aug-16 11:31N 35°04' E 119°44'  
2015-Aug-13 23:25N 35°04' E 119°46'4 4.2
2015-Aug-13 22:32N 35°03' E 119°50'9 8.6
2015-Aug-13 21:29N 35°02' E 120°01'8113.4
2015-Aug-13 15:25N 35°00' E 121°40'3612.8
2015-Aug-13 12:33N 34°48' E 122°22'5212.9
2015-Aug-13 08:32N 34°18' E 123°14'  
Track history (hours):
 
Tides and Currents Weather Stations Pressure Air Temp Water Temp Dewpoint Dewpoint Depression Visibility Wind Speed Wind Dir Waves Ship Positions

Sea Voyager

Last reported at 2015-Aug-20 00:26 UTC. Time now 2015-Aug-28 19:15 UTC.
Position N 35°03' E 119°51'.
Warning: this ship's position is 8 days out of date.

Length 243 m; draft 8.7 m.

Type: Ship. MMSI: 538003439.

Date/timePositionNaut miles runAvg speedWind from/ knotsBaromVisibWave heightAir tempDewpointWater temp
2015-Aug-20 00:26N 35°03' E 119°51'1112.2
2015-Aug-19 23:32N 35°04' E 119°38'11 9.3
2015-Aug-19 22:23N 35°03' E 119°25'3 0.3
2015-Aug-19 13:18N 35°06' E 119°24'0 0.0
2015-Aug-19 10:18N 35°06' E 119°24'0 0.0
2015-Aug-18 03:18N 35°06' E 119°24'0 0.0
2015-Aug-18 00:32N 35°06' E 119°24'3 2.5
2015-Aug-17 23:23N 35°03' E 119°25'6 7.1
2015-Aug-17 22:33N 35°02' E 119°32'6 5.4
2015-Aug-17 21:26N 35°04' E 119°39'4 0.1
2015-Aug-16 11:31N 35°04' E 119°44'  
2015-Aug-13 23:25N 35°04' E 119°46'4 4.2
2015-Aug-13 22:32N 35°03' E 119°50'9 8.6
2015-Aug-13 21:29N 35°02' E 120°01'8113.4
2015-Aug-13 15:25N 35°00' E 121°40'3612.8
2015-Aug-13 12:33N 34°48' E 122°22'5212.9
2015-Aug-13 08:32N 34°18' E 123°14'  

Dump ship's entire track history